AirNav   Bose ProFlight Series 2 Headset
 
 1900 users online  

5IL5 Hope Field Airport
Mazon, Illinois, USA

GOING TO MAZON?


FAA INFORMATION EFFECTIVE 02 JANUARY 2020

Location

FAA Identifier: 5IL5
Lat/Long: 41-15-35.7300N 088-21-23.5300W
41-15.595500N 088-21.392167W
41.2599250,-88.3565361
(estimated)
Elevation: 558 ft. / 170 m
From city: 3 miles NE of MAZON, IL
Time zone: UTC -6 (UTC -5 during Daylight Saving Time)
Zip code: 60444

Airport Operations

Airport use: Private use. Permission required prior to landing
Activation date: 12/2013
Control tower: no
ARTCC: CHICAGO CENTER
FSS: KANKAKEE FLIGHT SERVICE STATION
Attendance: IRREG
Wind indicator: yes
Segmented circle: no

Airport Communications

WX AWOS-3 at C09 (10 nm N): 118.175 (815-941-1815)
WX AWOS-3 at JOT (17 nm NE): 119.975 (815-730-9560)

Nearby radio navigation aids

VOR radial/distance  VOR name  Freq  Var
JOTr184/17.3JOLIET VOR/DME112.3002E
IKKr296/25.4KANKAKEE VOR/DME111.6000E
EONr267/25.5PEOTONE VORTAC113.2002E
PNTr030/31.4PONTIAC VOR/DME109.6003E
DPAr178/37.8DUPAGE VOR/DME108.4002E
CGTr245/38.4CHICAGO HEIGHTS VORTAC114.2002E

Airport Services

Runway Information

Runway 9/27

Dimensions: 2070 x 100 ft. / 631 x 30 m
Surface: turf, in good condition
RUNWAY 9  RUNWAY 27
Traffic pattern: leftleft

Airport Ownership and Management from official FAA records

Ownership: Privately-owned
Owner: BILL SHAIN
890 N 7TH STREET
COAL CITY, IL 60416
Phone 815-634-8992
Manager: BILL SHAIN
890 N 7TH STREET
COAL CITY, IL 60416
Phone 815-634-8992

Airport Operational Statistics

Aircraft based on the field: 1
Single engine airplanes: 1
    

Additional Remarks

FOR CD CTC CHICAGO ARTCC AT 630-906-8921.

Instrument Procedures

There are no published instrument procedures at 5IL5.

Some nearby airports with instrument procedures:

C09 - Morris Municipal Airport-James R. Washburn Field (10 nm N)
KPNT - Pontiac Municipal Airport (23 nm SW)
KLOT - Lewis University Airport (24 nm NE)
KIKK - Greater Kankakee Airport (26 nm SE)
1C5 - Bolingbrook's Clow International Airport (28 nm N)
 
Loc | Ops | Rwys | IFR | FBO | Links
Com | Nav | Svcs | Stats | Notes
Aerial photo
No photo
 
Airport distance calculator
Flying to Hope Field Airport? Find the distance to fly.

From to 5IL5

Sunrise and sunset
Times for 23-Jan-2020
 Local
(UTC-6)
 Zulu
(UTC)
Morning civil twilight06:4412:44
Sunrise07:1313:13
Sunset16:5722:57
Evening civil twilight17:2723:27

Current date and time
Zulu (UTC)  23-Jan-2020 20:37:44
Local (UTC-6)  23-Jan-2020 14:37:44
 
METAR
KC09 
11nm N 
232015Z AUTO 16007KT 4SM UP OVC005 01/01 A3001 RMK AO2 T00060005
KJOT 
18nm NE 
232015Z AUTO 16005KT 4SM UP OVC007 01/00 A3002 RMK AO2 T00090003
TAF
KDPA 
40nm N 
231747Z 2318/2418 17010KT 4SM -SN BR OVC009 TEMPO 2318/2320 1 1/2SM -SN OVC007 FM232100 14007KT 2SM -SNDZ BR OVC006 TEMPO 2322/2401 3/4SM -DZ BR FM240500 10010KT 1SM -SNRA BR OVC008 FM241100 07010KT 3SM -RASN BR SCT004 OVC006
KMDW 
42nm NE 
231747Z 2318/2424 17010KT 4SM -SN BR SCT009 OVC012 TEMPO 2318/2320 1 1/2SM -SN OVC009 FM232100 14007KT 3SM -SNDZ BR OVC009 FM240500 10010KT 1SM -RASN BR OVC006 FM241100 07010KT 3SM -RA BR SCT004 OVC006 FM241800 05009KT 3SM -RA SCT004 OVC007
KORD 
47nm NE 
231747Z 2318/2424 17010KT 4SM -SN BR OVC009 TEMPO 2318/2320 1 1/2SM -SN OVC007 FM232100 14007KT 3SM -SNDZ BR OVC006 FM240500 10010KT 1SM -SNRA BR OVC008 FM241100 07010KT 3SM -RASN BR SCT004 OVC006 FM241800 05009KT 3SM -RA SCT004 OVC007
KGYY 
47nm NE 
231747Z 2318/2418 17010KT 4SM -SN BR SCT009 OVC015 TEMPO 2318/2320 1 1/2SM -SN OVC009 FM232100 14007KT 3SM -SNDZ BR OVC016 FM240500 10010KT 1SM -RA BR OVC008 FM241100 07010KT 3SM -RA BR SCT004 OVC006
NOTAMs
Click for the latest NOTAMs
NOTAMs are issued by the DoD/FAA and will open in a separate window not controlled by AirNav.

 

 
 

Would you like to see your business listed on this page?

 If your business provides an interesting product or service to pilots, flight crews, aircraft, or users of the Hope Field Airport, you should consider listing it here.  To start the listing process, click on the button below
 
Add a business
 

Other Pages about Hope Field Airport

Update a link
 
Copyright © AirNav, LLC. All rights reserved. Privacy Policy  Contact